Time;durP1;ratioP1;P1;durP2;ratioP2;P2;SDS_P1;SDS_P2;PMS_P1;PMS_P2;Temp;Humidity;BMP_temperature;BMP_pressure;BME280_temperature;BME280_humidity;BME280_pressure;Samples;Min_cycle;Max_cycle;Signal;HPM_P1;HPM_P2
2022/03/31 00:02:12;;;;;;;2.97;0.90;;;4.10;99.90;;;;;;4994545;28;20060;-76
2022/03/31 00:04:38;;;;;;;2.63;0.88;;;4.10;99.90;;;;;;5009873;28;20046;-76
2022/03/31 00:07:07;;;;;;;4.15;1.00;;;4.10;99.90;;;;;;4994650;28;20088;-76
2022/03/31 00:09:33;;;;;;;1.50;0.85;;;4.40;99.90;;;;;;4988865;28;20425;-76
2022/03/31 00:11:59;;;;;;;3.78;1.30;;;4.10;99.90;;;;;;5011608;28;20049;-76
2022/03/31 00:14:27;;;;;;;4.40;1.08;;;4.80;99.90;;;;;;4994731;28;20416;-76
2022/03/31 00:16:54;;;;;;;1.17;0.70;;;4.10;99.90;;;;;;4988152;28;20057;-76
2022/03/31 00:19:20;;;;;;;4.88;1.30;;;4.10;99.90;;;;;;5005032;28;20049;-76
2022/03/31 00:21:46;;;;;;;3.85;1.27;;;4.10;99.90;;;;;;4995267;28;20141;-76
2022/03/31 00:24:11;;;;;;;3.78;1.10;;;4.10;99.90;;;;;;5009928;28;20125;-76
2022/03/31 00:26:37;;;;;;;3.33;1.00;;;5.10;99.90;;;;;;5011123;28;20407;-76
2022/03/31 00:29:04;;;;;;;3.80;1.10;;;4.10;99.90;;;;;;4986656;28;20123;-77
2022/03/31 00:31:30;;;;;;;2.88;1.63;;;4.10;99.90;;;;;;4994933;28;20046;-76
2022/03/31 00:33:56;;;;;;;2.85;1.23;;;4.90;99.90;;;;;;4993847;28;20038;-77
2022/03/31 00:36:21;;;;;;;3.88;1.17;;;5.10;99.90;;;;;;4993820;28;20735;-77
2022/03/31 00:41:38;;;;;;;7.45;1.40;;;4.10;99.90;;;;;;5008282;28;20402;-77
2022/03/31 00:44:05;;;;;;;3.35;0.93;;;4.10;99.90;;;;;;4993930;28;20195;-77
2022/03/31 00:46:31;;;;;;;3.72;1.40;;;4.20;99.90;;;;;;5011260;28;20052;-77
2022/03/31 00:48:57;;;;;;;2.95;1.30;;;4.10;99.90;;;;;;5010539;28;20120;-77
2022/03/31 00:51:23;;;;;;;2.25;1.10;;;4.90;99.90;;;;;;5010107;28;20128;-77
2022/03/31 00:53:50;;;;;;;5.68;1.30;;;4.10;99.90;;;;;;4994496;28;20129;-77
2022/03/31 00:56:18;;;;;;;2.92;1.10;;;4.10;99.90;;;;;;5010335;28;20133;-77
2022/03/31 00:58:44;;;;;;;2.28;1.00;;;4.70;99.90;;;;;;5010316;28;20054;-77
2022/03/31 01:01:13;;;;;;;2.97;1.23;;;4.00;99.90;;;;;;4994046;28;20136;-77
2022/03/31 01:03:39;;;;;;;3.60;1.40;;;4.30;99.90;;;;;;5010440;28;20138;-77
2022/03/31 01:06:05;;;;;;;4.32;1.10;;;4.00;99.90;;;;;;5009195;28;20137;-77
2022/03/31 01:08:31;;;;;;;1.77;1.13;;;4.00;99.90;;;;;;5009970;28;20058;-77
2022/03/31 01:10:58;;;;;;;2.92;1.40;;;4.00;99.90;;;;;;5009844;28;20077;-77
2022/03/31 01:13:24;;;;;;;3.15;1.08;;;4.00;99.90;;;;;;5008938;28;20120;-77
2022/03/31 01:15:49;;;;;;;4.63;1.20;;;4.00;99.90;;;;;;5017840;28;20134;-77
2022/03/31 01:18:15;;;;;;;3.60;0.90;;;4.40;99.90;;;;;;5008591;28;20042;-77
2022/03/31 01:20:41;;;;;;;2.83;1.20;;;4.00;99.90;;;;;;4994360;28;20042;-77
2022/03/31 01:23:11;;;;;;;3.97;1.20;;;4.20;99.90;;;;;;4993314;28;20120;-77
2022/03/31 01:25:37;;;;;;;3.70;1.30;;;4.70;99.90;;;;;;5001546;28;20551;-77
2022/03/31 01:28:03;;;;;;;2.67;1.05;;;4.00;99.90;;;;;;4994037;28;20061;-77
2022/03/31 01:30:29;;;;;;;2.78;1.08;;;4.10;99.90;;;;;;4961717;28;20046;-77
2022/03/31 01:32:54;;;;;;;3.70;1.20;;;4.00;99.90;;;;;;5009871;28;20517;-77
2022/03/31 01:35:21;;;;;;;2.13;0.98;;;4.00;99.90;;;;;;5007513;28;20048;-77
2022/03/31 01:37:47;;;;;;;4.15;1.55;;;4.00;99.90;;;;;;5025643;28;20057;-77
2022/03/31 01:40:13;;;;;;;5.30;1.23;;;4.90;99.90;;;;;;4992687;28;20139;-77
2022/03/31 01:42:40;;;;;;;2.97;1.20;;;4.00;99.90;;;;;;4993501;28;20077;-77
2022/03/31 01:45:10;;;;;;;2.78;1.38;;;4.00;99.90;;;;;;4986084;28;20138;-76
2022/03/31 01:47:36;;;;;;;5.00;1.23;;;4.10;99.90;;;;;;5009828;28;20057;-77
2022/03/31 01:50:03;;;;;;;3.03;1.10;;;4.00;99.90;;;;;;4976931;28;20136;-77
2022/03/31 01:52:29;;;;;;;2.35;1.10;;;4.00;99.90;;;;;;4993518;28;20078;-77
2022/03/31 01:54:55;;;;;;;2.25;1.30;;;4.90;99.90;;;;;;4992971;28;20054;-77
2022/03/31 01:57:21;;;;;;;3.70;1.13;;;4.00;99.90;;;;;;5009221;28;20050;-77
2022/03/31 01:59:46;;;;;;;4.80;1.30;;;4.00;99.90;;;;;;4961218;28;20132;-77
2022/03/31 02:02:13;;;;;;;3.40;1.13;;;4.40;99.90;;;;;;4992704;28;20061;-77
2022/03/31 02:04:40;;;;;;;3.30;1.40;;;4.00;99.90;;;;;;5008834;28;20379;-77
2022/03/31 02:07:07;;;;;;;5.10;1.30;;;4.50;99.90;;;;;;4984837;28;20050;-77
2022/03/31 02:09:33;;;;;;;3.00;1.40;;;4.00;99.90;;;;;;5008426;28;20057;-77
2022/03/31 02:11:59;;;;;;;6.35;1.17;;;4.30;99.90;;;;;;4969733;28;20054;-77
2022/03/31 02:14:28;;;;;;;2.17;1.20;;;4.00;99.90;;;;;;5008710;28;20053;-77
2022/03/31 02:16:55;;;;;;;1.75;1.00;;;4.00;99.90;;;;;;4969451;28;20058;-77
2022/03/31 02:19:21;;;;;;;3.00;1.27;;;5.00;99.90;;;;;;5008438;28;20581;-76
2022/03/31 02:21:49;;;;;;;2.05;0.90;;;4.00;99.90;;;;;;4983750;28;20141;-76
2022/03/31 02:24:15;;;;;;;4.47;1.33;;;5.00;99.90;;;;;;5007987;28;20077;-77
2022/03/31 02:26:41;;;;;;;4.88;1.15;;;4.00;99.90;;;;;;5009121;28;20084;-77
2022/03/31 02:29:07;;;;;;;3.05;1.17;;;5.00;99.90;;;;;;4992546;28;20410;-77
2022/03/31 02:31:33;;;;;;;5.75;1.35;;;4.00;99.90;;;;;;4992362;28;20046;-77
2022/03/31 02:33:59;;;;;;;3.38;1.10;;;4.00;99.90;;;;;;4992191;28;20042;-77
2022/03/31 02:36:28;;;;;;;3.28;1.20;;;4.00;99.90;;;;;;5008255;28;20061;-77
2022/03/31 02:38:54;;;;;;;2.30;1.00;;;4.00;99.90;;;;;;5025599;28;20140;-77
2022/03/31 02:41:19;;;;;;;5.15;1.20;;;5.00;99.90;;;;;;4984473;28;20128;-77
2022/03/31 02:43:45;;;;;;;3.75;1.20;;;4.00;99.90;;;;;;4991609;28;20046;-77
2022/03/31 02:46:12;;;;;;;4.57;1.58;;;4.50;99.90;;;;;;5007200;28;20065;-77
2022/03/31 02:48:37;;;;;;;6.03;1.63;;;4.00;99.90;;;;;;5008726;28;20053;-77
2022/03/31 02:51:03;;;;;;;4.43;1.50;;;4.30;99.90;;;;;;4992221;28;20050;-76
2022/03/31 02:56:13;;;;;;;3.15;1.50;;;4.90;99.90;;;;;;5007082;28;20132;-77
2022/03/31 02:58:39;;;;;;;3.13;1.70;;;4.10;99.90;;;;;;5008750;28;20494;-76
2022/03/31 03:01:05;;;;;;;1.45;1.10;;;4.40;99.90;;;;;;4991650;28;20081;-77
2022/03/31 03:03:32;;;;;;;1.88;1.00;;;4.10;99.90;;;;;;4991769;28;20120;-77
2022/03/31 03:05:58;;;;;;;1.55;1.05;;;4.10;99.90;;;;;;5007536;28;20124;-76
2022/03/31 03:08:27;;;;;;;1.85;0.82;;;4.50;99.90;;;;;;4991758;28;20061;-77
2022/03/31 03:10:53;;;;;;;1.98;0.98;;;4.40;99.90;;;;;;5005613;28;20069;-76
2022/03/31 03:13:19;;;;;;;1.65;0.98;;;3.90;99.90;;;;;;5004919;28;20504;-77
2022/03/31 03:15:46;;;;;;;3.08;1.40;;;4.40;99.90;;;;;;4983867;28;20124;-77
2022/03/31 03:18:13;;;;;;;3.80;1.30;;;3.80;99.90;;;;;;4990776;28;20046;-77
2022/03/31 03:20:39;;;;;;;4.03;1.70;;;4.70;99.90;;;;;;5007639;28;20045;-76
2022/03/31 03:23:05;;;;;;;5.10;1.70;;;4.10;99.90;;;;;;5007442;28;20662;-77
2022/03/31 03:25:31;;;;;;;3.53;1.50;;;4.40;99.90;;;;;;4991860;28;20050;-77
2022/03/31 03:27:58;;;;;;;3.63;1.90;;;3.80;99.90;;;;;;5008634;28;20054;-76
2022/03/31 03:30:23;;;;;;;5.18;1.80;;;4.10;99.90;;;;;;4991553;28;20497;-77
2022/03/31 03:32:49;;;;;;;3.67;1.90;;;3.80;99.90;;;;;;4968620;28;20045;-77
2022/03/31 03:35:16;;;;;;;3.00;1.88;;;3.90;99.90;;;;;;5006674;28;20505;-76
2022/03/31 03:37:43;;;;;;;4.50;2.30;;;3.80;99.90;;;;;;5007514;28;20108;-77
2022/03/31 03:40:11;;;;;;;5.30;2.42;;;4.60;99.90;;;;;;4966105;28;20494;-77
2022/03/31 03:42:39;;;;;;;6.90;2.88;;;3.80;99.90;;;;;;5007148;28;20129;-77
2022/03/31 03:45:07;;;;;;;6.15;2.60;;;3.80;99.90;;;;;;5007813;28;20046;-77
2022/03/31 03:47:33;;;;;;;6.32;2.85;;;3.80;99.90;;;;;;4992096;28;20049;-76
2022/03/31 03:49:59;;;;;;;4.53;3.08;;;3.90;99.90;;;;;;5008464;28;20046;-77
2022/03/31 03:52:24;;;;;;;4.82;2.90;;;3.90;99.90;;;;;;4991139;28;20049;-77
2022/03/31 03:54:51;;;;;;;4.65;3.15;;;4.40;99.90;;;;;;4991706;28;20441;-76
2022/03/31 03:57:17;;;;;;;5.28;3.00;;;3.90;99.90;;;;;;4998722;28;20487;-77
2022/03/31 03:59:43;;;;;;;5.60;3.50;;;4.80;99.90;;;;;;4983404;28;20046;-77
2022/03/31 04:02:09;;;;;;;5.80;3.58;;;3.90;99.90;;;;;;5006594;28;20054;-77
2022/03/31 04:04:34;;;;;;;5.60;3.70;;;3.40;99.90;;;;;;4990970;28;20069;-77
2022/03/31 04:07:00;;;;;;;3.95;3.35;;;4.00;99.90;;;;;;4991662;28;20407;-77
2022/03/31 04:09:26;;;;;;;4.72;3.20;;;4.00;99.90;;;;;;4998776;28;20097;-75
2022/03/31 04:11:52;;;;;;;4.55;3.20;;;4.00;99.90;;;;;;5006391;28;20100;-75
2022/03/31 04:14:20;;;;;;;4.50;2.80;;;4.00;99.90;;;;;;5007203;28;20057;-75
2022/03/31 04:16:46;;;;;;;4.93;2.60;;;4.00;99.90;;;;;;5007787;28;20050;-75
2022/03/31 04:19:12;;;;;;;5.80;3.10;;;4.00;99.90;;;;;;4968932;28;20052;-76
2022/03/31 04:21:38;;;;;;;4.30;2.25;;;4.40;99.90;;;;;;4998997;28;20057;-75
2022/03/31 04:24:05;;;;;;;5.25;2.65;;;4.00;99.90;;;;;;5006322;28;20050;-75
2022/03/31 04:26:32;;;;;;;4.75;2.25;;;4.00;99.90;;;;;;5006174;28;20090;-75
2022/03/31 04:28:57;;;;;;;4.05;2.28;;;4.90;99.90;;;;;;4999681;28;20085;-75
2022/03/31 04:31:24;;;;;;;5.25;1.90;;;5.00;99.90;;;;;;4991083;28;20085;-75
2022/03/31 04:33:50;;;;;;;2.25;1.50;;;3.80;99.90;;;;;;4989997;28;20129;-76
2022/03/31 04:36:16;;;;;;;3.00;1.80;;;3.80;99.90;;;;;;4988392;28;20088;-75
2022/03/31 04:38:42;;;;;;;3.28;1.60;;;3.80;99.90;;;;;;5006221;28;20583;-75
2022/03/31 04:41:07;;;;;;;3.33;1.67;;;3.80;99.90;;;;;;4984723;28;20077;-75
2022/03/31 04:43:33;;;;;;;4.47;1.90;;;3.80;99.90;;;;;;5006553;28;20057;-75
2022/03/31 04:45:59;;;;;;;4.85;1.83;;;4.60;99.90;;;;;;4990007;28;20038;-76
2022/03/31 04:48:25;;;;;;;3.38;1.60;;;3.70;99.90;;;;;;5000663;28;20049;-76
2022/03/31 04:50:51;;;;;;;3.53;1.70;;;3.70;99.90;;;;;;4994377;28;20518;-75
2022/03/31 04:53:17;;;;;;;2.47;1.70;;;3.70;99.90;;;;;;5002063;28;20042;-75
2022/03/31 04:55:43;;;;;;;3.22;1.67;;;3.60;99.90;;;;;;5010296;28;20038;-76
2022/03/31 04:58:08;;;;;;;2.75;1.80;;;3.60;99.90;;;;;;5010200;28;20034;-75
2022/03/31 05:00:35;;;;;;;3.25;1.48;;;3.30;99.90;;;;;;5005116;28;20136;-75
2022/03/31 05:03:01;;;;;;;1.67;1.20;;;3.90;99.90;;;;;;5006484;28;20475;-76
2022/03/31 05:05:27;;;;;;;3.45;1.60;;;4.70;99.90;;;;;;4990990;28;20050;-76
2022/03/31 05:07:53;;;;;;;2.47;1.40;;;3.50;99.90;;;;;;5025209;28;20042;-76
2022/03/31 05:10:19;;;;;;;2.55;1.58;;;3.50;99.90;;;;;;4992481;28;20410;-76
2022/03/31 05:12:45;;;;;;;3.30;1.35;;;3.90;99.90;;;;;;4992831;28;20133;-76
2022/03/31 05:15:11;;;;;;;1.65;1.13;;;3.40;99.90;;;;;;5009043;28;20375;-76
2022/03/31 05:17:38;;;;;;;1.90;1.40;;;3.50;99.90;;;;;;5009340;28;20057;-76
2022/03/31 05:20:09;;;;;;;2.00;1.20;;;4.00;99.90;;;;;;5007815;28;20088;-76
2022/03/31 05:22:36;;;;;;;3.00;1.40;;;3.30;99.90;;;;;;5009319;28;20561;-76
2022/03/31 05:25:04;;;;;;;2.03;1.02;;;4.10;99.90;;;;;;5010038;28;20080;-76
2022/03/31 05:27:30;;;;;;;1.83;1.02;;;3.40;99.90;;;;;;5009165;28;20057;-75
2022/03/31 05:29:57;;;;;;;2.53;1.48;;;3.30;99.90;;;;;;4977542;28;20050;-75
2022/03/31 05:32:23;;;;;;;4.60;1.40;;;4.20;99.90;;;;;;4991925;28;20490;-76
2022/03/31 05:34:49;;;;;;;3.25;1.30;;;4.90;99.90;;;;;;4992988;28;20050;-75
2022/03/31 05:37:15;;;;;;;3.45;1.27;;;4.30;99.90;;;;;;4984061;28;20042;-75
2022/03/31 05:39:40;;;;;;;2.08;1.13;;;3.30;99.90;;;;;;4993081;28;20045;-75
2022/03/31 05:42:07;;;;;;;3.05;1.30;;;3.30;99.90;;;;;;4993209;28;20050;-78
2022/03/31 05:44:32;;;;;;;1.92;1.08;;;3.30;99.90;;;;;;4992600;28;20046;-75
2022/03/31 05:46:58;;;;;;;2.10;1.30;;;3.60;99.90;;;;;;4992845;28;20182;-76
2022/03/31 05:49:24;;;;;;;3.67;1.20;;;4.40;99.90;;;;;;4991590;28;20129;-76
2022/03/31 05:51:50;;;;;;;2.40;1.33;;;4.40;99.90;;;;;;4984537;28;20125;-75
2022/03/31 05:54:16;;;;;;;3.28;1.20;;;3.30;99.90;;;;;;4991854;28;20059;-76
2022/03/31 05:56:43;;;;;;;2.63;1.17;;;4.10;99.90;;;;;;4993169;28;20062;-78
2022/03/31 05:59:09;;;;;;;2.78;1.40;;;3.60;99.90;;;;;;4959999;28;20388;-79
2022/03/31 06:01:34;;;;;;;2.60;1.33;;;3.30;99.90;;;;;;5008561;28;20128;-79
2022/03/31 06:04:00;;;;;;;2.00;1.45;;;3.30;99.90;;;;;;4992206;28;20046;-80
2022/03/31 06:06:26;;;;;;;3.28;1.67;;;3.40;99.90;;;;;;5023714;28;20171;-79
2022/03/31 06:08:52;;;;;;;3.85;1.70;;;3.40;99.90;;;;;;4992404;28;20160;-78
2022/03/31 06:11:18;;;;;;;4.10;1.70;;;3.40;99.90;;;;;;4975650;28;20058;-80
2022/03/31 06:13:43;;;;;;;2.70;1.70;;;4.30;99.90;;;;;;4991984;28;20403;-80
2022/03/31 06:16:11;;;;;;;3.72;1.70;;;4.70;99.90;;;;;;4976748;28;20045;-81
2022/03/31 06:18:38;;;;;;;3.25;1.80;;;3.90;99.90;;;;;;5007860;28;20111;-78
2022/03/31 06:21:03;;;;;;;3.17;2.15;;;3.50;99.90;;;;;;5000827;28;20053;-81
2022/03/31 06:23:29;;;;;;;3.88;2.15;;;3.30;99.90;;;;;;5004915;28;20565;-82
2022/03/31 06:25:55;;;;;;;4.65;2.00;;;4.10;99.90;;;;;;4992160;28;20096;-81
2022/03/31 06:28:21;;;;;;;3.63;1.80;;;3.50;99.90;;;;;;4983456;28;20123;-82
2022/03/31 06:30:48;;;;;;;3.17;1.77;;;4.50;99.90;;;;;;5007476;28;20054;-82
2022/03/31 06:33:16;;;;;;;3.33;2.25;;;3.60;99.90;;;;;;4983799;28;20045;-78
2022/03/31 06:35:41;;;;;;;4.78;2.35;;;3.60;99.90;;;;;;5008467;28;20062;-80
2022/03/31 06:38:08;;;;;;;2.85;2.17;;;3.70;99.90;;;;;;4983825;28;20472;-79
2022/03/31 06:40:37;;;;;;;3.90;2.20;;;3.70;99.90;;;;;;4992370;28;20058;-78
2022/03/31 06:43:04;;;;;;;2.78;2.20;;;3.70;99.90;;;;;;5008489;28;20565;-83
2022/03/31 06:45:31;;;;;;;5.07;2.40;;;3.80;99.90;;;;;;4990585;28;20058;-81
2022/03/31 06:47:58;;;;;;;3.38;2.30;;;3.80;99.90;;;;;;5006248;28;20054;-81
2022/03/31 06:50:24;;;;;;;2.65;2.00;;;3.80;99.90;;;;;;5007089;28;20049;-76
2022/03/31 06:52:50;;;;;;;6.65;2.35;;;4.50;99.90;;;;;;4991427;28;20042;-80
2022/03/31 06:55:17;;;;;;;3.45;1.80;;;3.90;99.90;;;;;;4991464;28;20529;-80
2022/03/31 06:57:42;;;;;;;3.13;2.33;;;5.40;99.90;;;;;;4983906;28;20050;-80
2022/03/31 07:00:09;;;;;;;3.50;1.95;;;4.30;99.90;;;;;;5006496;28;20042;-78
2022/03/31 07:02:35;;;;;;;2.95;1.67;;;4.00;99.90;;;;;;5007278;28;20125;-80
2022/03/31 07:05:00;;;;;;;3.13;2.00;;;5.20;99.90;;;;;;5007438;28;20050;-80
2022/03/31 07:07:26;;;;;;;2.90;1.92;;;4.60;99.90;;;;;;5024179;28;20046;-82
2022/03/31 07:09:52;;;;;;;3.92;2.20;;;4.10;99.90;;;;;;5000717;28;20062;-84
2022/03/31 07:12:18;;;;;;;3.63;2.28;;;4.40;99.90;;;;;;4993055;28;20057;-78
2022/03/31 07:14:44;;;;;;;2.58;1.90;;;4.20;99.90;;;;;;4992421;28;20115;-79
2022/03/31 07:17:11;;;;;;;3.20;1.67;;;4.30;99.90;;;;;;5003247;28;20109;-76
2022/03/31 07:19:37;;;;;;;2.40;1.73;;;4.20;99.90;;;;;;4976792;28;20053;-81
2022/03/31 07:22:03;;;;;;;2.60;1.90;;;4.20;99.90;;;;;;4983755;28;20466;-81
2022/03/31 07:24:29;;;;;;;2.55;1.77;;;4.20;99.90;;;;;;4981200;28;20112;-80
2022/03/31 07:26:55;;;;;;;3.35;1.92;;;4.60;99.90;;;;;;5005630;28;20442;-79
2022/03/31 07:29:21;;;;;;;2.60;1.80;;;4.20;99.90;;;;;;5007778;28;20376;-81
2022/03/31 07:31:47;;;;;;;2.35;1.88;;;4.40;99.90;;;;;;4984094;28;20054;-82
2022/03/31 07:34:13;;;;;;;2.75;1.95;;;4.30;99.90;;;;;;5005298;28;20125;-79
2022/03/31 07:36:39;;;;;;;2.70;1.88;;;4.50;99.90;;;;;;5006255;28;20042;-79
2022/03/31 07:39:05;;;;;;;2.88;1.95;;;4.30;99.90;;;;;;5004901;28;20379;-80
2022/03/31 07:41:30;;;;;;;2.65;2.08;;;4.30;99.90;;;;;;4983088;28;20060;-80
2022/03/31 07:43:56;;;;;;;3.30;2.38;;;4.40;99.90;;;;;;4999331;28;20054;-81
2022/03/31 07:46:22;;;;;;;3.00;2.20;;;4.40;99.90;;;;;;5005914;28;20050;-80
2022/03/31 07:48:48;;;;;;;4.18;2.67;;;4.50;99.90;;;;;;4991426;28;20057;-82
2022/03/31 07:51:14;;;;;;;3.38;2.22;;;4.50;99.90;;;;;;4991425;28;20053;-81
2022/03/31 07:53:39;;;;;;;3.45;2.15;;;4.50;99.90;;;;;;5006843;28;20337;-80
2022/03/31 07:56:05;;;;;;;3.50;2.42;;;4.60;99.90;;;;;;5008089;28;20046;-80
2022/03/31 07:58:32;;;;;;;3.60;2.50;;;5.10;99.90;;;;;;4991268;28;20060;-79
2022/03/31 08:00:58;;;;;;;3.60;2.63;;;4.70;99.90;;;;;;5007887;28;20132;-77
2022/03/31 08:03:24;;;;;;;3.47;2.42;;;4.70;99.90;;;;;;5005757;28;20137;-78
2022/03/31 08:05:51;;;;;;;3.85;3.20;;;5.50;99.90;;;;;;5006929;28;20493;-78
2022/03/31 08:08:18;;;;;;;4.35;2.80;;;4.80;99.90;;;;;;4991163;28;20398;-78
2022/03/31 08:10:43;;;;;;;3.45;2.63;;;5.50;99.90;;;;;;4988692;28;20061;-78
2022/03/31 08:13:10;;;;;;;4.28;2.95;;;5.70;99.90;;;;;;5023183;28;20117;-80
2022/03/31 08:15:37;;;;;;;3.63;2.50;;;5.10;99.90;;;;;;5005415;28;20088;-82
2022/03/31 08:18:04;;;;;;;4.50;3.10;;;4.90;99.90;;;;;;5008704;28;20042;-79
2022/03/31 08:20:29;;;;;;;3.88;3.00;;;4.90;99.90;;;;;;4989803;28;20050;-78
2022/03/31 08:22:55;;;;;;;4.25;3.20;;;5.00;99.90;;;;;;4994737;28;20038;-81
2022/03/31 08:25:21;;;;;;;3.78;3.10;;;5.10;99.90;;;;;;4995830;28;20283;-82
2022/03/31 08:27:47;;;;;;;3.58;2.97;;;5.10;99.90;;;;;;4985483;28;20115;-80
2022/03/31 08:30:19;;;;;;;3.38;2.70;;;5.60;99.90;;;;;;4994586;28;20380;-75
2022/03/31 08:32:46;;;;;;;3.65;2.88;;;5.10;99.90;;;;;;5009091;28;20121;-80
2022/03/31 08:35:13;;;;;;;4.38;3.00;;;6.30;99.90;;;;;;4994964;28;20572;-77
2022/03/31 08:37:40;;;;;;;3.65;3.05;;;5.10;99.90;;;;;;4994265;28;20053;-85
2022/03/31 08:40:08;;;;;;;3.83;2.67;;;5.10;99.90;;;;;;4988712;28;20537;-79
2022/03/31 08:42:35;;;;;;;2.92;2.42;;;5.00;99.90;;;;;;4995047;28;20137;-76
2022/03/31 08:45:01;;;;;;;3.00;2.50;;;5.40;99.90;;;;;;5011642;28;20037;-76
2022/03/31 08:47:28;;;;;;;4.03;3.25;;;5.10;99.90;;;;;;5002978;28;20046;-78
2022/03/31 08:49:55;;;;;;;4.65;3.47;;;5.00;99.90;;;;;;5010697;28;20478;-75
2022/03/31 08:52:22;;;;;;;3.67;2.97;;;5.80;99.90;;;;;;4994011;28;20125;-77
2022/03/31 08:54:48;;;;;;;3.85;3.45;;;4.90;99.90;;;;;;4969899;28;20153;-77
2022/03/31 08:57:14;;;;;;;4.53;3.75;;;4.80;99.90;;;;;;5009802;28;20050;-78
2022/03/31 08:59:40;;;;;;;4.32;3.67;;;4.70;99.90;;;;;;4994354;28;20129;-81
2022/03/31 09:02:06;;;;;;;4.45;3.65;;;4.70;99.90;;;;;;4977621;28;20128;-78
2022/03/31 09:04:31;;;;;;;4.85;3.85;;;4.60;99.90;;;;;;4961410;28;20085;-80
2022/03/31 09:07:05;;;;;;;6.10;4.72;;;4.60;99.90;;;;;;4993965;28;20045;-79
2022/03/31 09:09:43;;;;;;;5.60;4.53;;;4.60;99.90;;;;;;5009879;28;20380;-81
2022/03/31 09:12:08;;;;;;;5.82;4.13;;;4.60;99.90;;;;;;4992845;28;20093;-78
2022/03/31 09:14:34;;;;;;;4.43;3.53;;;5.50;99.90;;;;;;4993111;28;20553;-81
2022/03/31 09:17:16;;;;;;;4.53;3.47;;;5.60;99.90;;;;;;4985806;28;20050;-82
2022/03/31 09:19:43;;;;;;;4.30;3.80;;;5.60;99.90;;;;;;4993939;28;20085;-78
2022/03/31 09:22:09;;;;;;;4.68;3.72;;;4.90;99.90;;;;;;5010125;28;20073;-82
2022/03/31 09:24:36;;;;;;;4.20;3.50;;;4.40;99.90;;;;;;4993197;28;20050;-78
2022/03/31 09:27:03;;;;;;;4.60;3.67;;;4.50;99.90;;;;;;5009645;28;20120;-80
2022/03/31 09:29:31;;;;;;;3.03;2.30;;;4.50;99.90;;;;;;5009791;28;20410;-82
2022/03/31 09:32:08;;;;;;;4.43;2.70;;;5.10;99.90;;;;;;5010043;28;20053;-81
2022/03/31 09:34:50;;;;;;;3.65;2.50;;;5.90;99.90;;;;;;5007643;28;20060;-79
2022/03/31 09:37:16;;;;;;;3.40;2.92;;;4.70;99.90;;;;;;4987453;28;20065;-78
2022/03/31 09:39:42;;;;;;;4.57;2.60;;;4.60;99.90;;;;;;4960387;28;20054;-79
2022/03/31 09:42:13;;;;;;;3.45;2.45;;;4.90;99.90;;;;;;5008797;28;20053;-78
2022/03/31 09:44:41;;;;;;;3.33;2.58;;;4.70;99.90;;;;;;5009119;28;20050;-77
2022/03/31 09:47:08;;;;;;;3.25;2.35;;;4.90;99.90;;;;;;5009679;28;20061;-76
2022/03/31 09:49:34;;;;;;;3.35;2.60;;;4.90;99.90;;;;;;5009273;28;20132;-76
2022/03/31 09:52:02;;;;;;;2.92;2.25;;;5.00;99.90;;;;;;4970097;28;20162;-77
2022/03/31 09:54:30;;;;;;;3.05;2.25;;;5.00;99.90;;;;;;5007244;28;20052;-77
2022/03/31 09:56:57;;;;;;;3.15;2.28;;;5.30;99.90;;;;;;5009125;28;20617;-77
2022/03/31 09:59:31;;;;;;;3.22;2.40;;;4.90;99.90;;;;;;5008415;28;20117;-76
2022/03/31 10:01:57;;;;;;;3.30;2.40;;;6.10;99.90;;;;;;5009181;28;20076;-79
2022/03/31 10:04:24;;;;;;;4.32;2.42;;;4.90;99.90;;;;;;5006898;28;20578;-77
2022/03/31 10:06:50;;;;;;;3.30;2.53;;;4.90;99.90;;;;;;4991437;28;20144;-76
2022/03/31 10:09:17;;;;;;;3.42;2.40;;;5.40;99.90;;;;;;4992530;28;20491;-80
2022/03/31 10:11:46;;;;;;;2.70;2.40;;;4.80;99.90;;;;;;4972601;28;20053;-74
2022/03/31 10:14:44;;;;;;;3.45;2.50;;;5.30;99.90;;;;;;5006806;28;20520;-75
2022/03/31 10:17:10;;;;;;;3.42;2.72;;;4.80;99.90;;;;;;5007801;28;20096;-74
2022/03/31 10:19:41;;;;;;;4.50;2.45;;;5.80;99.90;;;;;;4991028;28;20049;-75
2022/03/31 10:25:05;;;;;;;3.17;2.25;;;4.90;99.90;;;;;;5007953;28;20057;-76
2022/03/31 10:27:41;;;;;;;3.70;2.58;;;4.60;99.90;;;;;;5008670;28;20049;-77
2022/03/31 10:30:11;;;;;;;4.10;2.20;;;4.50;99.90;;;;;;5008181;28;20058;-76
2022/03/31 10:32:37;;;;;;;2.92;2.42;;;4.50;99.90;;;;;;5023463;28;20521;-77
2022/03/31 10:35:03;;;;;;;3.55;2.33;;;5.80;99.90;;;;;;4997604;28;20064;-77
2022/03/31 10:37:35;;;;;;;3.13;2.50;;;4.50;99.90;;;;;;4991670;28;20041;-77
2022/03/31 10:40:04;;;;;;;3.92;2.60;;;4.50;99.90;;;;;;5007623;28;20050;-77
2022/03/31 10:42:30;;;;;;;3.30;2.50;;;4.40;99.90;;;;;;5008145;28;20056;-76
2022/03/31 10:45:12;;;;;;;2.90;2.10;;;4.40;99.90;;;;;;4958902;28;20046;-75
2022/03/31 10:47:40;;;;;;;4.05;2.50;;;4.40;99.90;;;;;;5007672;28;20054;-78
2022/03/31 10:50:09;;;;;;;3.38;2.70;;;4.40;99.90;;;;;;4987405;28;20139;-75
2022/03/31 10:52:36;;;;;;;3.05;2.60;;;4.40;99.90;;;;;;4974294;28;20060;-78
2022/03/31 10:55:07;;;;;;;3.47;2.78;;;4.40;99.90;;;;;;5006712;28;20073;-77
2022/03/31 10:57:42;;;;;;;3.10;2.45;;;4.30;99.90;;;;;;5007159;28;20418;-78
2022/03/31 11:00:10;;;;;;;3.80;2.70;;;5.00;99.90;;;;;;5014220;28;20049;-77
2022/03/31 11:02:41;;;;;;;3.13;2.30;;;4.20;99.90;;;;;;5006533;28;20046;-77
2022/03/31 11:05:07;;;;;;;3.10;2.40;;;4.10;99.90;;;;;;5006137;28;20057;-77
2022/03/31 11:07:33;;;;;;;3.40;2.60;;;4.10;99.90;;;;;;4982725;28;20061;-78
2022/03/31 11:10:00;;;;;;;3.55;2.70;;;4.00;99.90;;;;;;4991020;28;20099;-78
2022/03/31 11:12:28;;;;;;;2.65;2.20;;;4.20;99.90;;;;;;5007602;28;20426;-77
2022/03/31 11:14:56;;;;;;;3.20;2.53;;;4.30;99.90;;;;;;5006277;28;20053;-77
2022/03/31 11:17:22;;;;;;;3.33;2.33;;;5.00;99.90;;;;;;5008102;28;20549;-76
2022/03/31 11:19:49;;;;;;;3.35;2.55;;;3.90;99.90;;;;;;4990802;28;20077;-75
2022/03/31 11:22:20;;;;;;;3.47;2.50;;;3.90;99.90;;;;;;5006690;28;20042;-75
2022/03/31 11:24:46;;;;;;;3.70;2.55;;;3.90;99.90;;;;;;5005846;28;20499;-75
2022/03/31 11:27:11;;;;;;;3.70;2.70;;;5.00;99.90;;;;;;5006916;28;20533;-75
2022/03/31 11:29:37;;;;;;;3.55;2.78;;;4.00;99.90;;;;;;4990761;28;20051;-77
2022/03/31 11:32:05;;;;;;;4.40;2.83;;;3.80;99.90;;;;;;5007460;28;20046;-77
2022/03/31 11:34:30;;;;;;;3.95;3.30;;;3.80;99.90;;;;;;4991087;28;20074;-77
2022/03/31 11:36:57;;;;;;;4.57;3.03;;;3.80;99.90;;;;;;4989931;28;20049;-77
2022/03/31 11:39:28;;;;;;;5.03;3.75;;;3.80;99.90;;;;;;4997393;28;20495;-77
2022/03/31 11:41:55;;;;;;;4.53;3.78;;;3.80;99.90;;;;;;5006602;28;20331;-77
2022/03/31 11:44:22;;;;;;;5.10;3.72;;;3.70;99.90;;;;;;4988805;28;20499;-76
2022/03/31 11:46:49;;;;;;;5.85;3.80;;;3.70;99.90;;;;;;5007044;28;20050;-76
2022/03/31 11:49:23;;;;;;;4.70;3.30;;;3.70;99.90;;;;;;5006418;28;20077;-76
2022/03/31 11:51:51;;;;;;;5.10;4.05;;;3.60;99.90;;;;;;5006672;28;20049;-76
2022/03/31 11:54:17;;;;;;;5.50;4.32;;;3.50;99.90;;;;;;5004981;28;20560;-78
2022/03/31 11:56:46;;;;;;;4.60;3.70;;;3.50;99.90;;;;;;4991633;28;20054;-77
2022/03/31 11:59:14;;;;;;;5.55;3.90;;;3.50;99.90;;;;;;4995146;28;20580;-76
2022/03/31 12:01:47;;;;;;;4.80;3.55;;;3.50;99.90;;;;;;4986164;28;20061;-76
2022/03/31 12:04:20;;;;;;;4.82;3.85;;;3.50;99.90;;;;;;5011049;28;20499;-74
2022/03/31 12:06:47;;;;;;;4.63;4.00;;;3.80;99.90;;;;;;4993469;28;20125;-74
2022/03/31 12:09:14;;;;;;;5.63;4.15;;;3.40;99.90;;;;;;5011115;28;20042;-74
2022/03/31 12:11:40;;;;;;;6.43;4.45;;;3.40;99.90;;;;;;4977017;28;20434;-75
2022/03/31 12:14:09;;;;;;;4.38;3.75;;;3.40;99.90;;;;;;4992339;28;20478;-74
2022/03/31 12:16:43;;;;;;;5.15;4.15;;;3.30;99.90;;;;;;5010109;28;20142;-75
2022/03/31 12:19:09;;;;;;;5.32;4.03;;;3.30;99.90;;;;;;5010427;28;20102;-74
2022/03/31 12:21:46;;;;;;;4.85;3.67;;;3.30;99.90;;;;;;5001592;28;20095;-76
2022/03/31 12:24:13;;;;;;;5.03;4.10;;;3.30;99.90;;;;;;4993141;28;20423;-74
2022/03/31 12:26:53;;;;;;;5.13;3.78;;;3.30;99.90;;;;;;5008637;28;20089;-75
2022/03/31 12:29:21;;;;;;;4.70;3.70;;;3.20;99.90;;;;;;4993511;28;20526;-74
2022/03/31 12:31:48;;;;;;;3.95;3.53;;;3.30;99.90;;;;;;4993576;28;20089;-74
2022/03/31 12:34:14;;;;;;;4.63;3.63;;;3.20;99.90;;;;;;4960202;28;20402;-75
2022/03/31 12:36:41;;;;;;;3.95;3.33;;;3.10;99.90;;;;;;5008368;28;20121;-78
2022/03/31 12:39:08;;;;;;;3.78;3.08;;;3.10;99.90;;;;;;4978932;28;20109;-76
2022/03/31 12:41:39;;;;;;;3.55;2.58;;;3.10;99.90;;;;;;4977718;28;20046;-76
2022/03/31 12:44:04;;;;;;;3.03;2.17;;;3.00;99.90;;;;;;4994049;28;20056;-76
2022/03/31 12:46:35;;;;;;;3.25;2.13;;;3.10;99.90;;;;;;5010505;28;20513;-76
2022/03/31 12:49:13;;;;;;;2.47;2.05;;;3.10;99.90;;;;;;5009270;28;20054;-76
2022/03/31 12:51:48;;;;;;;3.22;1.70;;;3.10;99.90;;;;;;5009618;28;20042;-77
2022/03/31 12:54:23;;;;;;;3.72;2.00;;;3.10;99.90;;;;;;5008757;28;20065;-75
2022/03/31 12:56:49;;;;;;;3.15;2.00;;;3.10;99.90;;;;;;5009615;28;20041;-74
2022/03/31 12:59:20;;;;;;;3.75;2.50;;;3.10;99.90;;;;;;4992414;28;20452;-77
2022/03/31 13:02:07;;;;;;;3.95;2.10;;;3.10;99.90;;;;;;5025336;28;20077;-74
2022/03/31 13:04:35;;;;;;;3.58;2.83;;;3.20;99.90;;;;;;4992224;28;20524;-78
2022/03/31 13:07:06;;;;;;;2.95;2.20;;;3.20;99.90;;;;;;5001942;28;20049;-74